Time;durP1;ratioP1;P1;durP2;ratioP2;P2;SDS_P1;SDS_P2;PMS_P1;PMS_P2;Temp;Humidity;BMP_temperature;BMP_pressure;BME280_temperature;BME280_humidity;BME280_pressure;Samples;Min_cycle;Max_cycle;Signal;HPM_P1;HPM_P2
2023/10/06 00:00:42;;;;;;;9.33;5.83;;;14.00;99.90;;;;;;5083258;28;20193;-45
2023/10/06 00:03:13;;;;;;;9.97;5.10;;;14.00;99.90;;;;;;5071357;28;20722;-47
2023/10/06 00:05:40;;;;;;;9.13;5.93;;;14.00;99.90;;;;;;5083294;28;20228;-45
2023/10/06 00:08:10;;;;;;;8.50;6.10;;;13.90;99.90;;;;;;5080468;28;20233;-52
2023/10/06 00:10:44;;;;;;;8.83;5.70;;;13.90;99.90;;;;;;5034445;28;20259;-46
2023/10/06 00:13:13;;;;;;;8.77;6.30;;;13.90;99.90;;;;;;5078862;28;20214;-48
2023/10/06 00:15:40;;;;;;;9.53;5.60;;;13.90;99.90;;;;;;5081878;28;20229;-46
2023/10/06 00:18:16;;;;;;;8.83;5.77;;;13.90;99.90;;;;;;5070371;28;20297;-47
2023/10/06 00:20:48;;;;;;;7.60;6.37;;;13.90;99.90;;;;;;5083262;28;20197;-47
2023/10/06 00:23:21;;;;;;;10.80;6.53;;;13.90;99.90;;;;;;5077211;28;20221;-47
2023/10/06 00:25:51;;;;;;;11.17;6.23;;;13.90;99.90;;;;;;5048699;28;20264;-48
2023/10/06 00:28:21;;;;;;;10.70;6.10;;;13.90;99.90;;;;;;5085760;28;20295;-48
2023/10/06 00:30:56;;;;;;;7.90;6.40;;;13.90;99.90;;;;;;5077414;28;20194;-48
2023/10/06 00:33:24;;;;;;;11.80;6.67;;;13.90;99.90;;;;;;5069894;28;21041;-49
2023/10/06 00:35:51;;;;;;;11.97;6.43;;;13.90;99.90;;;;;;5069080;28;20197;-50
2023/10/06 00:38:18;;;;;;;10.33;6.80;;;13.90;99.90;;;;;;5078303;28;20989;-52
2023/10/06 00:40:51;;;;;;;9.37;6.93;;;13.90;99.90;;;;;;5070798;28;20614;-47
2023/10/06 00:43:34;;;;;;;10.30;7.03;;;13.90;99.90;;;;;;5030795;28;21035;-47
2023/10/06 00:46:02;;;;;;;14.10;7.47;;;13.90;99.90;;;;;;5064453;28;20202;-45
2023/10/06 00:48:30;;;;;;;16.80;8.40;;;13.80;99.90;;;;;;5067641;28;20249;-50
2023/10/06 00:51:01;;;;;;;12.33;7.07;;;13.90;99.90;;;;;;5079726;28;20190;-47
2023/10/06 00:53:32;;;;;;;10.33;7.60;;;13.80;99.90;;;;;;5078386;28;20225;-47
2023/10/06 00:56:02;;;;;;;12.67;7.97;;;13.80;99.90;;;;;;5079140;28;20200;-51
2023/10/06 00:58:34;;;;;;;12.53;7.53;;;13.80;99.90;;;;;;5059009;28;20228;-49
2023/10/06 01:01:05;;;;;;;15.83;7.40;;;13.80;99.90;;;;;;5066838;28;20198;-48
2023/10/06 01:03:38;;;;;;;10.87;7.53;;;13.80;99.90;;;;;;5072135;28;20267;-47
2023/10/06 01:06:12;;;;;;;13.03;8.00;;;13.70;99.90;;;;;;5078268;28;20190;-46
2023/10/06 01:08:41;;;;;;;12.60;7.83;;;13.70;99.90;;;;;;5065087;28;20213;-50
2023/10/06 01:11:12;;;;;;;13.13;7.57;;;13.70;99.90;;;;;;5075619;28;20197;-46
2023/10/06 01:13:53;;;;;;;16.23;8.00;;;13.70;99.90;;;;;;5053136;28;20269;-45
2023/10/06 01:16:25;;;;;;;17.97;8.67;;;13.70;99.90;;;;;;5073993;28;20277;-47
2023/10/06 01:19:00;;;;;;;11.97;7.93;;;13.70;99.90;;;;;;5052582;28;20222;-45
2023/10/06 01:21:29;;;;;;;13.80;8.20;;;13.70;99.90;;;;;;5069577;28;20608;-47
2023/10/06 01:24:03;;;;;;;12.80;8.43;;;13.60;99.90;;;;;;5079649;28;20194;-47
2023/10/06 01:26:30;;;;;;;17.37;7.93;;;13.60;99.90;;;;;;5065410;28;20206;-45
2023/10/06 01:28:57;;;;;;;15.17;8.17;;;13.60;99.90;;;;;;5049164;28;20226;-48
2023/10/06 01:31:24;;;;;;;12.67;8.50;;;13.60;99.90;;;;;;5079718;28;20190;-45
2023/10/06 01:33:51;;;;;;;11.73;8.37;;;13.60;99.90;;;;;;5060009;28;20340;-46
2023/10/06 01:36:22;;;;;;;15.80;8.97;;;13.60;99.90;;;;;;5073799;28;20294;-45
2023/10/06 01:38:49;;;;;;;10.27;8.67;;;13.60;99.90;;;;;;5082789;28;21003;-45
2023/10/06 01:41:20;;;;;;;16.27;9.30;;;13.60;99.90;;;;;;5084836;28;20194;-47
2023/10/06 01:43:47;;;;;;;13.97;9.33;;;13.60;99.90;;;;;;5068231;28;20318;-46
2023/10/06 01:46:14;;;;;;;12.87;9.00;;;13.60;99.90;;;;;;5054880;28;20194;-47
2023/10/06 01:48:41;;;;;;;12.33;9.73;;;13.60;99.90;;;;;;5056380;28;20236;-47
2023/10/06 01:51:09;;;;;;;15.53;9.43;;;13.60;99.90;;;;;;5072014;28;20206;-45
2023/10/06 01:53:40;;;;;;;15.87;9.10;;;13.60;99.90;;;;;;5077966;28;20214;-47
2023/10/06 01:56:08;;;;;;;17.20;10.20;;;13.60;99.90;;;;;;5080988;28;20182;-46
2023/10/06 01:58:37;;;;;;;14.67;9.70;;;13.60;99.90;;;;;;5074922;28;20250;-46
2023/10/06 02:01:07;;;;;;;12.97;9.40;;;13.60;99.90;;;;;;5036485;28;20222;-48
2023/10/06 02:03:38;;;;;;;15.40;9.40;;;13.60;99.90;;;;;;5084594;28;20237;-46
2023/10/06 02:06:13;;;;;;;14.10;10.33;;;13.60;99.90;;;;;;5051175;28;20864;-45
2023/10/06 02:08:42;;;;;;;19.07;10.17;;;13.60;99.90;;;;;;5078371;28;20218;-45
2023/10/06 02:11:12;;;;;;;16.87;9.70;;;13.60;99.90;;;;;;5074031;28;20505;-46
2023/10/06 02:13:40;;;;;;;18.40;10.43;;;13.60;99.90;;;;;;5076039;28;20197;-46
2023/10/06 02:16:08;;;;;;;18.60;10.60;;;13.60;99.90;;;;;;5050749;28;20248;-45
2023/10/06 02:18:40;;;;;;;12.77;10.30;;;13.60;99.90;;;;;;5084678;28;20245;-50
2023/10/06 02:21:13;;;;;;;15.83;9.87;;;13.60;99.90;;;;;;5071572;28;20220;-46
2023/10/06 02:23:42;;;;;;;17.00;9.83;;;13.60;99.90;;;;;;5080339;28;20684;-50
2023/10/06 02:26:12;;;;;;;20.10;10.53;;;13.60;99.90;;;;;;5080155;28;20190;-50
2023/10/06 02:28:48;;;;;;;16.43;10.17;;;13.70;99.90;;;;;;5086353;28;20214;-46
2023/10/06 02:31:15;;;;;;;18.00;10.80;;;13.70;99.90;;;;;;5031475;28;20340;-46
2023/10/06 02:33:48;;;;;;;15.37;9.73;;;13.70;99.90;;;;;;5084360;28;20825;-46
2023/10/06 02:36:17;;;;;;;13.60;9.90;;;13.70;99.90;;;;;;5070377;28;20679;-48
2023/10/06 02:38:47;;;;;;;18.30;9.93;;;13.60;99.90;;;;;;5084233;28;20299;-50
2023/10/06 02:41:18;;;;;;;14.17;10.40;;;13.60;99.90;;;;;;5079674;28;21015;-48
2023/10/06 02:43:51;;;;;;;14.97;9.80;;;13.60;99.90;;;;;;5060559;28;20214;-51
2023/10/06 02:46:23;;;;;;;12.63;9.03;;;13.60;99.90;;;;;;5035594;28;21395;-48
2023/10/06 02:48:50;;;;;;;15.00;9.53;;;13.60;99.90;;;;;;5082697;28;20426;-50
2023/10/06 02:51:28;;;;;;;18.67;10.83;;;13.60;99.90;;;;;;5077992;28;20273;-46
2023/10/06 02:54:09;;;;;;;14.70;9.40;;;13.60;99.90;;;;;;5076553;28;20189;-51
2023/10/06 02:56:36;;;;;;;14.50;9.57;;;13.60;99.90;;;;;;5070096;28;20201;-46
2023/10/06 02:59:20;;;;;;;15.17;9.67;;;13.50;99.90;;;;;;5078236;28;20225;-48
2023/10/06 03:01:51;;;;;;;13.97;9.77;;;13.60;99.90;;;;;;5035577;28;20283;-48
2023/10/06 03:04:21;;;;;;;15.20;9.37;;;13.60;99.90;;;;;;5080079;28;20313;-48
2023/10/06 03:06:53;;;;;;;17.23;9.53;;;13.50;99.90;;;;;;5070484;28;20285;-49
2023/10/06 03:09:21;;;;;;;15.70;9.07;;;13.50;99.90;;;;;;5061277;28;20301;-46
2023/10/06 03:11:53;;;;;;;12.70;9.17;;;13.50;99.90;;;;;;5082058;28;20193;-50
2023/10/06 03:14:37;;;;;;;15.23;8.47;;;13.50;99.90;;;;;;5064391;28;20189;-47
2023/10/06 03:17:08;;;;;;;13.23;8.70;;;13.50;99.90;;;;;;5038770;28;20258;-46
2023/10/06 03:19:37;;;;;;;15.90;9.07;;;13.60;99.90;;;;;;5069801;28;20449;-46
2023/10/06 03:22:07;;;;;;;16.60;8.17;;;13.50;99.90;;;;;;5079521;28;20186;-48
2023/10/06 03:24:40;;;;;;;14.40;9.23;;;13.50;99.90;;;;;;5074459;28;20212;-46
2023/10/06 03:27:12;;;;;;;12.27;8.47;;;13.60;99.90;;;;;;5061694;28;20277;-47
2023/10/06 03:29:50;;;;;;;11.50;7.83;;;13.50;99.90;;;;;;5055806;28;20217;-46
2023/10/06 03:32:27;;;;;;;14.47;8.90;;;13.50;99.90;;;;;;5034928;28;21152;-47
2023/10/06 03:34:58;;;;;;;20.03;8.87;;;13.50;99.90;;;;;;5076652;28;20234;-48
2023/10/06 03:37:37;;;;;;;11.70;9.00;;;13.50;99.90;;;;;;5079808;28;20197;-46
2023/10/06 03:40:21;;;;;;;14.03;8.40;;;13.50;99.90;;;;;;5055834;28;20584;-47
2023/10/06 03:42:48;;;;;;;13.67;8.90;;;13.50;99.90;;;;;;5066521;28;20263;-47
2023/10/06 03:45:26;;;;;;;12.63;7.73;;;13.50;99.90;;;;;;5062820;28;20209;-47
2023/10/06 03:48:08;;;;;;;12.67;8.53;;;13.50;99.90;;;;;;5055547;28;20198;-47
2023/10/06 03:50:38;;;;;;;14.03;9.10;;;13.50;99.90;;;;;;5090139;28;20202;-52
2023/10/06 03:53:07;;;;;;;14.40;8.40;;;13.50;99.90;;;;;;5062521;28;20285;-47
2023/10/06 03:55:39;;;;;;;15.37;8.67;;;13.50;99.90;;;;;;5056564;28;20292;-47
2023/10/06 03:58:06;;;;;;;14.73;8.87;;;13.50;99.90;;;;;;5078209;28;20202;-49
2023/10/06 04:00:38;;;;;;;14.83;8.37;;;13.50;99.90;;;;;;5067604;28;20208;-47
2023/10/06 04:03:06;;;;;;;13.03;8.40;;;13.50;99.90;;;;;;5088162;28;20659;-46
2023/10/06 04:05:37;;;;;;;15.47;9.70;;;13.50;99.90;;;;;;5047703;28;20282;-51
2023/10/06 04:08:07;;;;;;;14.40;9.87;;;13.50;99.90;;;;;;5076976;28;20201;-45
2023/10/06 04:10:36;;;;;;;16.97;9.13;;;13.50;99.90;;;;;;5071968;28;20727;-48
2023/10/06 04:13:05;;;;;;;15.67;9.47;;;13.50;99.90;;;;;;5082558;28;20186;-48
2023/10/06 04:15:32;;;;;;;15.77;9.50;;;13.50;99.90;;;;;;5070460;28;20319;-49
2023/10/06 04:18:00;;;;;;;15.40;8.83;;;13.50;99.90;;;;;;5082626;28;20656;-47
2023/10/06 04:20:27;;;;;;;17.63;9.50;;;13.50;99.90;;;;;;5049750;28;20214;-47
2023/10/06 04:22:54;;;;;;;23.07;10.93;;;13.50;99.90;;;;;;5070742;28;20289;-46
2023/10/06 04:25:21;;;;;;;17.30;11.43;;;13.50;99.90;;;;;;5067279;28;20916;-49
2023/10/06 04:27:48;;;;;;;14.00;10.40;;;13.50;99.90;;;;;;5089540;28;20263;-47
2023/10/06 04:30:14;;;;;;;14.23;10.77;;;13.50;99.90;;;;;;5080352;28;20251;-46
2023/10/06 04:32:42;;;;;;;19.73;11.03;;;13.50;99.90;;;;;;5074739;28;20197;-51
2023/10/06 04:35:19;;;;;;;15.67;11.20;;;13.50;99.90;;;;;;5051654;28;21209;-47
2023/10/06 04:37:48;;;;;;;13.73;11.17;;;13.50;99.90;;;;;;5071559;28;20466;-50
2023/10/06 04:40:18;;;;;;;12.37;11.07;;;13.60;99.90;;;;;;5071357;28;20190;-49
2023/10/06 04:42:45;;;;;;;20.33;11.60;;;13.50;99.90;;;;;;5073306;28;20281;-46
2023/10/06 04:45:13;;;;;;;16.70;10.63;;;13.60;99.90;;;;;;5079576;28;20198;-50
2023/10/06 04:47:41;;;;;;;15.67;10.90;;;13.60;99.90;;;;;;5073463;28;20212;-52
2023/10/06 04:50:11;;;;;;;16.43;10.73;;;13.60;99.90;;;;;;5078373;28;20225;-46
2023/10/06 04:52:39;;;;;;;15.53;10.67;;;13.60;99.90;;;;;;5051011;28;20210;-49
2023/10/06 04:55:11;;;;;;;14.63;10.63;;;13.60;99.90;;;;;;5068683;28;20205;-47
2023/10/06 04:57:38;;;;;;;14.93;10.97;;;13.60;99.90;;;;;;5067207;28;20220;-50
2023/10/06 05:00:13;;;;;;;15.17;9.73;;;13.60;99.90;;;;;;5073608;28;20213;-46
2023/10/06 05:02:42;;;;;;;12.67;9.60;;;13.60;99.90;;;;;;5074264;28;20280;-48
2023/10/06 05:05:11;;;;;;;20.80;10.23;;;13.60;99.90;;;;;;5070425;28;20197;-50
2023/10/06 05:07:39;;;;;;;15.57;10.40;;;13.60;99.90;;;;;;5051422;28;20287;-47
2023/10/06 05:10:10;;;;;;;14.50;9.50;;;13.60;99.90;;;;;;5075605;28;20495;-48
2023/10/06 05:12:38;;;;;;;15.03;9.53;;;13.60;99.90;;;;;;5064197;28;20231;-49
2023/10/06 05:15:09;;;;;;;15.03;9.27;;;13.60;99.90;;;;;;5073131;28;20174;-50
2023/10/06 05:17:36;;;;;;;16.00;9.30;;;13.60;99.90;;;;;;5084969;28;20201;-47
2023/10/06 05:20:04;;;;;;;12.57;9.30;;;13.60;99.90;;;;;;5071249;28;20206;-46
2023/10/06 05:22:31;;;;;;;16.83;10.17;;;13.50;99.90;;;;;;5053890;28;20206;-49
2023/10/06 05:25:01;;;;;;;13.13;9.07;;;13.60;99.90;;;;;;5074983;28;21072;-47
2023/10/06 05:27:28;;;;;;;13.00;8.97;;;13.60;99.90;;;;;;5076586;28;20201;-48
2023/10/06 05:29:56;;;;;;;13.10;8.93;;;13.50;99.90;;;;;;5085206;28;20278;-46
2023/10/06 05:32:24;;;;;;;12.03;8.80;;;13.60;99.90;;;;;;5086066;28;20190;-47
2023/10/06 05:34:51;;;;;;;16.57;9.50;;;13.60;99.90;;;;;;5068621;28;20206;-48
2023/10/06 05:37:17;;;;;;;12.87;9.10;;;13.60;99.90;;;;;;5082552;28;20737;-47
2023/10/06 05:39:46;;;;;;;16.07;8.27;;;13.50;99.90;;;;;;5033810;28;20214;-46
2023/10/06 05:42:15;;;;;;;16.47;8.70;;;13.50;99.90;;;;;;5079464;28;20232;-46
2023/10/06 05:44:42;;;;;;;11.67;7.80;;;13.50;99.90;;;;;;5070941;28;20302;-47
2023/10/06 05:47:09;;;;;;;14.70;8.13;;;13.50;99.90;;;;;;5086331;28;20272;-47
2023/10/06 05:49:38;;;;;;;11.03;8.60;;;13.50;99.90;;;;;;5067783;28;20222;-48
2023/10/06 05:52:10;;;;;;;14.63;7.53;;;13.50;99.90;;;;;;5080707;28;20217;-46
2023/10/06 05:54:37;;;;;;;9.27;7.37;;;13.50;99.90;;;;;;5034818;28;20228;-45
2023/10/06 05:57:04;;;;;;;15.03;8.07;;;13.50;99.90;;;;;;5066954;28;20605;-46
2023/10/06 05:59:36;;;;;;;10.07;7.37;;;13.50;99.90;;;;;;5067105;28;20313;-50
2023/10/06 06:02:04;;;;;;;10.17;6.43;;;13.50;99.90;;;;;;5070197;28;20202;-48
2023/10/06 06:04:34;;;;;;;13.13;7.57;;;13.50;99.90;;;;;;5077639;28;20217;-46
2023/10/06 06:07:02;;;;;;;12.27;7.00;;;13.50;99.90;;;;;;5080846;28;20644;-47
2023/10/06 06:09:30;;;;;;;11.53;7.10;;;13.60;99.90;;;;;;5041881;28;20264;-47
2023/10/06 06:11:59;;;;;;;12.43;7.27;;;13.60;99.90;;;;;;5078034;28;20524;-60
2023/10/06 06:14:26;;;;;;;10.33;7.40;;;13.60;99.90;;;;;;5069470;28;20202;-60
2023/10/06 06:16:55;;;;;;;8.37;6.07;;;13.60;99.90;;;;;;5060947;28;20278;-46
2023/10/06 06:19:23;;;;;;;14.70;7.23;;;13.60;99.90;;;;;;5074411;28;20229;-44
2023/10/06 06:21:54;;;;;;;11.40;6.50;;;13.60;99.90;;;;;;5070300;28;20194;-43
2023/10/06 06:24:22;;;;;;;14.00;7.27;;;13.60;99.90;;;;;;5052549;28;20218;-49
2023/10/06 06:26:50;;;;;;;9.33;6.70;;;13.60;99.90;;;;;;5080184;28;20575;-43
2023/10/06 06:29:21;;;;;;;8.93;6.43;;;13.60;99.90;;;;;;5073624;28;20227;-48
2023/10/06 06:31:52;;;;;;;11.90;6.17;;;13.60;99.90;;;;;;5075389;28;20198;-45
2023/10/06 06:34:20;;;;;;;13.87;5.87;;;13.60;99.90;;;;;;5056322;28;20217;-43
2023/10/06 06:36:48;;;;;;;10.87;6.00;;;13.60;99.90;;;;;;5064594;28;20202;-47
2023/10/06 06:39:17;;;;;;;12.00;5.80;;;13.60;99.90;;;;;;5070975;28;20210;-47
2023/10/06 06:41:44;;;;;;;13.17;6.10;;;13.60;99.90;;;;;;5053108;28;20212;-44
2023/10/06 06:44:10;;;;;;;7.73;6.10;;;13.60;99.90;;;;;;5073062;28;20824;-45
2023/10/06 06:46:38;;;;;;;11.60;5.60;;;13.50;99.90;;;;;;5083317;28;20263;-44
2023/10/06 06:49:05;;;;;;;10.80;5.90;;;13.50;99.90;;;;;;5054980;28;20228;-47
2023/10/06 06:51:36;;;;;;;10.10;6.13;;;13.50;99.90;;;;;;5065896;28;20240;-43
2023/10/06 06:54:05;;;;;;;6.63;5.33;;;13.60;99.90;;;;;;5071686;28;20201;-46
2023/10/06 06:56:32;;;;;;;13.53;6.37;;;13.60;99.90;;;;;;5051854;28;20550;-43
2023/10/06 06:59:00;;;;;;;8.83;6.23;;;13.60;99.90;;;;;;5080750;28;20217;-48
2023/10/06 07:01:27;;;;;;;8.57;6.10;;;13.60;99.90;;;;;;5078941;28;20214;-46
2023/10/06 07:03:54;;;;;;;11.43;5.53;;;13.60;99.90;;;;;;5065106;28;20274;-43
2023/10/06 07:06:21;;;;;;;7.27;5.73;;;13.60;99.90;;;;;;5069504;28;20190;-45
2023/10/06 07:08:50;;;;;;;12.03;5.67;;;13.60;99.90;;;;;;5073710;28;20241;-48
2023/10/06 07:11:17;;;;;;;9.13;5.77;;;13.60;99.90;;;;;;5055422;28;20228;-43
2023/10/06 07:13:45;;;;;;;9.93;5.70;;;13.60;99.90;;;;;;5083489;28;20206;-45
2023/10/06 07:16:12;;;;;;;11.23;5.83;;;13.70;99.90;;;;;;5071467;28;20198;-43
2023/10/06 07:18:39;;;;;;;9.80;5.33;;;13.60;99.90;;;;;;5079746;28;20249;-43
2023/10/06 07:21:10;;;;;;;10.43;5.80;;;13.70;99.90;;;;;;5065738;28;20913;-45
2023/10/06 07:23:38;;;;;;;8.90;5.93;;;13.70;99.90;;;;;;5072380;28;20849;-47
2023/10/06 07:26:13;;;;;;;10.77;6.37;;;13.70;99.90;;;;;;5053152;28;20730;-44
2023/10/06 07:28:40;;;;;;;10.00;5.63;;;13.70;99.90;;;;;;5082682;28;20217;-44
2023/10/06 07:31:12;;;;;;;11.03;5.80;;;13.70;99.90;;;;;;5070653;28;20186;-44
2023/10/06 07:33:39;;;;;;;9.90;6.53;;;13.60;99.90;;;;;;5073195;28;20212;-45
2023/10/06 07:36:17;;;;;;;8.33;5.27;;;13.60;99.90;;;;;;5071315;28;20202;-43
2023/10/06 07:38:45;;;;;;;11.37;5.70;;;13.60;99.90;;;;;;5067911;28;20741;-43
2023/10/06 07:41:19;;;;;;;11.63;5.87;;;13.60;99.90;;;;;;5074035;28;20221;-42
2023/10/06 07:43:48;;;;;;;10.83;5.83;;;13.60;99.90;;;;;;5055309;28;20206;-43
2023/10/06 07:46:16;;;;;;;9.47;5.67;;;13.60;99.90;;;;;;5071602;28;20198;-43
2023/10/06 07:48:44;;;;;;;16.57;6.60;;;13.60;99.90;;;;;;5083383;28;20263;-43
2023/10/06 07:51:13;;;;;;;12.53;6.27;;;13.60;99.90;;;;;;5063487;28;20210;-46
2023/10/06 07:53:40;;;;;;;9.20;5.77;;;13.60;99.90;;;;;;5068711;28;20288;-43
2023/10/06 07:56:09;;;;;;;8.90;5.43;;;13.70;99.90;;;;;;5070663;28;20862;-45
2023/10/06 07:58:41;;;;;;;10.33;6.30;;;13.70;99.90;;;;;;5052392;28;20872;-43
2023/10/06 08:01:09;;;;;;;12.60;6.07;;;13.70;99.90;;;;;;5079710;28;20199;-43
2023/10/06 08:03:38;;;;;;;8.63;5.17;;;13.70;99.90;;;;;;5075272;28;20255;-45
2023/10/06 08:06:06;;;;;;;10.60;6.17;;;13.70;99.90;;;;;;5069281;28;20220;-45
2023/10/06 08:08:33;;;;;;;12.70;6.10;;;13.80;99.90;;;;;;5067568;28;20241;-45
2023/10/06 08:11:01;;;;;;;10.40;6.13;;;13.80;99.90;;;;;;5082744;28;20549;-45
2023/10/06 08:13:30;;;;;;;15.27;6.90;;;13.90;99.90;;;;;;5053675;28;20214;-45
2023/10/06 08:15:59;;;;;;;14.27;5.87;;;13.90;99.90;;;;;;5082315;28;20491;-44
2023/10/06 08:18:28;;;;;;;12.40;5.40;;;13.90;99.90;;;;;;5066566;28;20245;-46
2023/10/06 08:20:55;;;;;;;11.70;6.13;;;14.00;99.90;;;;;;5075363;28;20198;-44
2023/10/06 08:23:22;;;;;;;8.70;5.27;;;14.00;99.90;;;;;;5066169;28;20205;-44
2023/10/06 08:25:49;;;;;;;8.90;6.00;;;14.00;99.90;;;;;;5079984;28;20217;-47
2023/10/06 08:28:16;;;;;;;9.73;5.50;;;14.00;99.90;;;;;;5062816;28;20789;-45
2023/10/06 08:30:43;;;;;;;12.83;4.70;;;14.00;99.90;;;;;;5083139;28;20238;-49
2023/10/06 08:33:11;;;;;;;11.00;5.53;;;14.00;99.90;;;;;;5085608;28;20334;-49
2023/10/06 08:35:40;;;;;;;10.37;5.53;;;14.00;99.90;;;;;;5068087;28;20320;-45
2023/10/06 08:38:08;;;;;;;10.07;5.47;;;14.00;99.90;;;;;;5084614;28;20265;-44
2023/10/06 08:40:37;;;;;;;10.70;5.90;;;14.00;99.90;;;;;;5069822;28;20197;-42
2023/10/06 08:43:07;;;;;;;8.43;5.40;;;14.00;99.90;;;;;;5063538;28;20738;-44
2023/10/06 08:45:40;;;;;;;11.37;5.43;;;14.00;99.90;;;;;;5084574;28;20300;-44
2023/10/06 08:48:10;;;;;;;12.80;6.10;;;14.10;99.90;;;;;;5088267;28;20285;-45
2023/10/06 08:50:38;;;;;;;9.27;5.33;;;14.10;99.90;;;;;;5070276;28;20282;-43
2023/10/06 08:53:09;;;;;;;6.43;5.60;;;14.10;99.90;;;;;;5089131;28;20217;-48
2023/10/06 08:55:38;;;;;;;9.97;5.83;;;14.10;99.90;;;;;;5064567;28;20683;-46
2023/10/06 08:58:07;;;;;;;8.87;5.67;;;14.10;99.90;;;;;;5061925;28;22023;-46
2023/10/06 09:00:36;;;;;;;8.70;5.70;;;14.10;99.90;;;;;;5078788;28;20216;-47
2023/10/06 09:03:08;;;;;;;10.03;5.97;;;14.10;99.90;;;;;;5086311;28;20213;-47
2023/10/06 09:05:41;;;;;;;7.67;5.47;;;14.10;99.90;;;;;;5076521;28;20237;-45
2023/10/06 09:08:09;;;;;;;9.80;5.57;;;14.10;99.90;;;;;;5073537;28;20243;-44
2023/10/06 09:10:37;;;;;;;10.53;5.07;;;14.20;99.90;;;;;;5075723;28;20573;-47
2023/10/06 09:13:05;;;;;;;7.87;5.33;;;14.20;99.90;;;;;;5077488;28;20208;-46
2023/10/06 09:15:35;;;;;;;10.00;5.27;;;14.20;99.90;;;;;;5068998;28;20178;-45
2023/10/06 09:18:03;;;;;;;10.60;5.67;;;14.20;99.90;;;;;;5077603;28;20197;-47
2023/10/06 09:20:32;;;;;;;8.17;6.13;;;14.20;99.90;;;;;;5072047;28;20202;-47
2023/10/06 09:23:00;;;;;;;11.43;5.70;;;14.20;99.90;;;;;;5076777;28;20672;-48
2023/10/06 09:25:29;;;;;;;9.10;5.53;;;14.20;99.90;;;;;;5070606;28;20217;-46
2023/10/06 09:28:08;;;;;;;10.90;5.83;;;14.10;99.90;;;;;;5085191;28;20206;-46
2023/10/06 09:30:50;;;;;;;7.77;4.50;;;14.20;99.90;;;;;;5052640;28;20194;-45
2023/10/06 09:33:25;;;;;;;9.10;5.27;;;14.20;99.90;;;;;;5072209;28;20197;-47
2023/10/06 09:36:06;;;;;;;11.83;4.70;;;14.20;99.90;;;;;;5081171;28;20194;-45
2023/10/06 09:38:40;;;;;;;9.93;5.17;;;14.20;99.90;;;;;;5068760;28;20282;-46
2023/10/06 09:41:09;;;;;;;9.57;4.50;;;14.30;99.90;;;;;;5063589;28;20488;-44
2023/10/06 09:43:39;;;;;;;9.83;5.10;;;14.30;99.90;;;;;;5078977;28;20202;-49
2023/10/06 09:46:07;;;;;;;8.33;4.57;;;14.30;99.90;;;;;;5039071;28;20213;-45
2023/10/06 09:48:37;;;;;;;10.50;4.97;;;14.40;99.90;;;;;;5073986;28;20225;-47
2023/10/06 09:51:07;;;;;;;9.37;5.20;;;14.40;99.90;;;;;;5078265;28;20209;-48
2023/10/06 09:53:43;;;;;;;10.77;5.23;;;14.40;99.90;;;;;;5073194;28;20205;-45
2023/10/06 09:56:13;;;;;;;10.33;5.30;;;14.40;99.90;;;;;;5074683;28;20196;-52
2023/10/06 09:58:47;;;;;;;8.97;4.80;;;14.50;99.90;;;;;;5075172;28;20216;-46
2023/10/06 10:01:15;;;;;;;6.50;4.40;;;14.40;99.90;;;;;;5059603;28;20193;-45
2023/10/06 10:03:50;;;;;;;9.27;4.90;;;14.50;99.90;;;;;;5087354;28;20198;-43
2023/10/06 10:06:33;;;;;;;7.83;4.47;;;14.50;99.90;;;;;;5074183;28;21319;-46
2023/10/06 10:09:07;;;;;;;9.50;4.60;;;14.40;99.90;;;;;;5071210;28;20214;-42
2023/10/06 10:11:39;;;;;;;9.50;4.80;;;14.40;99.90;;;;;;5069274;28;20623;-43
2023/10/06 10:14:32;;;;;;;10.37;4.70;;;14.40;99.90;;;;;;5071208;28;20244;-46
2023/10/06 10:17:14;;;;;;;9.37;5.13;;;14.40;99.90;;;;;;5050350;28;20364;-45
2023/10/06 10:19:44;;;;;;;7.13;5.13;;;14.40;99.90;;;;;;5081354;28;20217;-43
2023/10/06 10:22:13;;;;;;;10.27;5.30;;;14.40;99.90;;;;;;5084667;28;20198;-44
2023/10/06 10:24:42;;;;;;;8.97;5.30;;;14.30;99.90;;;;;;5061717;28;20355;-47
2023/10/06 10:27:17;;;;;;;6.57;4.43;;;14.30;99.90;;;;;;5071705;28;20201;-42
2023/10/06 10:29:44;;;;;;;9.07;5.03;;;14.30;99.90;;;;;;5070693;28;20228;-45
2023/10/06 10:32:15;;;;;;;7.57;4.70;;;14.20;99.90;;;;;;5053569;28;20703;-42
2023/10/06 10:35:09;;;;;;;5.93;4.80;;;14.20;99.90;;;;;;5083495;28;20193;-49
2023/10/06 10:37:55;;;;;;;6.97;5.33;;;14.20;99.90;;;;;;5081916;28;20247;-46
2023/10/06 10:40:24;;;;;;;5.90;4.50;;;14.20;99.90;;;;;;5069272;28;20212;-49
2023/10/06 10:42:57;;;;;;;6.93;4.20;;;14.10;99.90;;;;;;5072592;28;20672;-48
2023/10/06 10:45:34;;;;;;;5.60;5.10;;;14.10;99.90;;;;;;5076805;28;20206;-46
2023/10/06 10:48:04;;;;;;;8.90;5.70;;;14.10;99.90;;;;;;5071966;28;20185;-42
2023/10/06 10:51:01;;;;;;;7.23;5.13;;;14.10;99.90;;;;;;5064699;28;21005;-46
2023/10/06 10:53:33;;;;;;;7.97;5.00;;;14.10;99.90;;;;;;5067729;28;20281;-47
2023/10/06 10:56:01;;;;;;;7.30;5.63;;;14.10;99.90;;;;;;5066211;28;20191;-52
2023/10/06 10:58:55;;;;;;;7.60;5.40;;;14.10;99.90;;;;;;5080328;28;20290;-48
2023/10/06 11:01:23;;;;;;;11.20;6.23;;;14.10;99.90;;;;;;5073532;28;20205;-45
2023/10/06 11:04:18;;;;;;;12.30;6.43;;;14.10;99.90;;;;;;5034697;28;20646;-43
2023/10/06 11:06:45;;;;;;;7.87;5.87;;;14.00;99.90;;;;;;5059447;28;20215;-47
2023/10/06 11:09:25;;;;;;;6.60;6.00;;;14.00;99.90;;;;;;5083165;28;20226;-46
2023/10/06 11:11:55;;;;;;;10.47;5.60;;;14.10;99.90;;;;;;5073400;28;20193;-49
2023/10/06 11:14:25;;;;;;;12.00;5.60;;;14.10;99.90;;;;;;5073742;28;21358;-49
2023/10/06 11:16:52;;;;;;;9.33;6.10;;;14.10;99.90;;;;;;5071809;28;20209;-46
2023/10/06 11:19:20;;;;;;;14.97;6.90;;;14.10;99.90;;;;;;5047658;28;20232;-44
2023/10/06 11:21:48;;;;;;;9.40;5.83;;;14.20;99.90;;;;;;5076266;28;20288;-45
2023/10/06 11:24:28;;;;;;;8.07;6.03;;;14.20;99.90;;;;;;5066682;28;20198;-51
2023/10/06 11:26:55;;;;;;;10.00;6.53;;;14.20;99.90;;;;;;5073781;28;20687;-47
2023/10/06 11:29:31;;;;;;;10.13;6.50;;;14.20;99.90;;;;;;5070041;28;20213;-42
2023/10/06 11:32:00;;;;;;;11.90;5.93;;;14.30;99.90;;;;;;5073602;28;20281;-50
2023/10/06 11:34:27;;;;;;;10.40;6.03;;;14.20;99.90;;;;;;5068054;28;20202;-45
2023/10/06 11:36:55;;;;;;;7.00;6.30;;;14.30;99.90;;;;;;5048159;28;20298;-45
2023/10/06 11:39:24;;;;;;;7.93;6.37;;;14.30;99.90;;;;;;5078924;28;20910;-44
2023/10/06 11:41:55;;;;;;;10.50;6.20;;;14.30;99.90;;;;;;5068321;28;20995;-44
2023/10/06 11:44:23;;;;;;;7.13;5.90;;;14.30;99.90;;;;;;5061417;28;20286;-47
2023/10/06 11:46:58;;;;;;;9.57;5.50;;;14.30;99.90;;;;;;5072271;28;20300;-48
2023/10/06 11:49:25;;;;;;;10.53;6.50;;;14.20;99.90;;;;;;5067164;28;20222;-43
2023/10/06 11:51:53;;;;;;;7.47;5.87;;;14.20;99.90;;;;;;5050929;28;20532;-47
2023/10/06 11:54:21;;;;;;;9.93;5.90;;;14.30;99.90;;;;;;5072802;28;20212;-47
2023/10/06 11:56:49;;;;;;;6.77;5.97;;;14.20;99.90;;;;;;5082050;28;20273;-44
2023/10/06 11:59:22;;;;;;;10.90;6.10;;;14.30;99.90;;;;;;5061491;28;20210;-42
2023/10/06 12:01:49;;;;;;;10.73;6.63;;;14.30;99.90;;;;;;5082087;28;20198;-43
2023/10/06 12:04:30;;;;;;;11.67;6.70;;;14.40;99.90;;;;;;5070705;28;20220;-43
2023/10/06 12:06:58;;;;;;;12.80;6.33;;;14.30;99.90;;;;;;5070914;28;20210;-49
2023/10/06 12:09:29;;;;;;;8.63;6.80;;;14.40;99.90;;;;;;5062280;28;20216;-44
2023/10/06 12:11:59;;;;;;;10.00;6.90;;;14.40;99.90;;;;;;5079550;28;20205;-50
2023/10/06 12:14:26;;;;;;;10.90;6.47;;;14.40;99.90;;;;;;5074905;28;20206;-43
2023/10/06 12:16:54;;;;;;;8.63;6.40;;;14.40;99.90;;;;;;5079700;28;20197;-49
2023/10/06 12:19:23;;;;;;;10.67;7.17;;;14.50;99.90;;;;;;5070466;28;20225;-46
2023/10/06 12:21:51;;;;;;;13.37;6.97;;;14.50;99.90;;;;;;5080114;28;20209;-47
2023/10/06 12:24:22;;;;;;;12.43;7.17;;;14.50;99.90;;;;;;5042097;28;21003;-48
2023/10/06 12:26:49;;;;;;;10.13;6.93;;;14.50;99.90;;;;;;5081592;28;20283;-42
2023/10/06 12:29:16;;;;;;;10.83;6.53;;;14.50;99.90;;;;;;5071558;28;20275;-49
2023/10/06 12:31:44;;;;;;;7.40;6.37;;;14.50;99.90;;;;;;5075297;28;20205;-45
2023/10/06 12:34:15;;;;;;;9.03;6.70;;;14.60;99.90;;;;;;5071386;28;20193;-45
2023/10/06 12:36:42;;;;;;;9.17;6.47;;;14.60;99.90;;;;;;5081002;28;20197;-44
2023/10/06 12:39:15;;;;;;;7.17;6.47;;;14.70;99.90;;;;;;5033768;28;20254;-51
2023/10/06 12:41:46;;;;;;;10.20;6.50;;;14.70;99.90;;;;;;5075737;28;20193;-45
2023/10/06 12:44:14;;;;;;;8.17;6.80;;;14.70;99.90;;;;;;5068003;28;20277;-44
2023/10/06 12:46:41;;;;;;;12.23;7.40;;;14.80;99.90;;;;;;5068788;28;20213;-51
2023/10/06 12:49:08;;;;;;;7.43;6.43;;;14.90;99.90;;;;;;5052582;28;21087;-47
2023/10/06 12:51:34;;;;;;;10.20;6.63;;;14.90;99.90;;;;;;5078062;28;20245;-43
2023/10/06 12:54:01;;;;;;;11.63;6.67;;;14.90;99.90;;;;;;5048790;28;20965;-46